createdAt,value
2017-09-12T00:00:16.674Z,99.90
2017-09-12T00:02:44.706Z,99.90
2017-09-12T00:05:12.714Z,99.90
2017-09-12T00:07:40.817Z,99.90
2017-09-12T00:10:09.602Z,99.90
2017-09-12T00:12:38.386Z,99.90
2017-09-12T00:15:08.068Z,99.90
2017-09-12T00:17:36.090Z,99.90
2017-09-12T00:20:04.142Z,99.90
2017-09-12T00:22:32.915Z,99.90
2017-09-12T00:25:00.954Z,99.90
2017-09-12T00:27:28.964Z,99.90
2017-09-12T00:29:59.658Z,99.90
2017-09-12T00:32:28.663Z,99.90
2017-09-12T00:34:57.642Z,99.90
2017-09-12T00:37:25.650Z,99.90
2017-09-12T00:39:54.458Z,99.90
2017-09-12T00:42:22.470Z,99.90
2017-09-12T00:44:51.270Z,99.90
2017-09-12T00:47:19.284Z,99.90
2017-09-12T00:49:51.090Z,99.90
2017-09-12T00:52:20.006Z,99.90
2017-09-12T00:54:48.014Z,99.90
2017-09-12T00:57:16.098Z,99.90
2017-09-12T00:59:44.098Z,99.90
2017-09-12T01:02:14.099Z,99.90
2017-09-12T01:04:42.874Z,99.90
2017-09-12T01:07:11.898Z,99.90
2017-09-12T01:09:40.802Z,99.90
2017-09-12T01:12:09.770Z,99.90
2017-09-12T01:14:37.794Z,99.90
2017-09-12T01:17:05.814Z,99.90
2017-09-12T01:19:34.792Z,99.90
2017-09-12T01:22:04.970Z,99.90
2017-09-12T01:24:33.741Z,99.90
2017-09-12T01:27:06.518Z,99.90
2017-09-12T01:29:37.230Z,99.90
2017-09-12T01:32:05.218Z,99.90
2017-09-12T01:34:34.026Z,99.90
2017-09-12T01:37:02.866Z,99.90
2017-09-12T01:39:32.882Z,99.90
2017-09-12T01:42:01.894Z,99.90
2017-09-12T01:44:31.905Z,99.90
2017-09-12T01:46:59.910Z,99.90
2017-09-12T01:49:27.962Z,99.90
2017-09-12T01:51:56.921Z,99.90
2017-09-12T01:54:25.713Z,99.90
2017-09-12T01:56:55.749Z,99.90
2017-09-12T01:59:23.773Z,99.90
2017-09-12T02:01:51.825Z,99.90
2017-09-12T02:04:19.849Z,99.90
2017-09-12T02:06:47.856Z,99.90
2017-09-12T02:09:15.921Z,99.90
2017-09-12T02:11:43.909Z,99.90
2017-09-12T02:14:12.841Z,99.90
2017-09-12T02:16:42.593Z,99.90
2017-09-12T02:19:11.381Z,99.90
2017-09-12T02:21:39.400Z,99.90
2017-09-12T02:24:12.938Z,99.90
2017-09-12T02:26:45.320Z,99.90
2017-09-12T02:29:15.138Z,99.90
2017-09-12T02:31:43.919Z,99.90
2017-09-12T02:34:16.352Z,99.90
2017-09-12T02:36:44.374Z,99.90
2017-09-12T02:39:12.409Z,99.90
2017-09-12T02:41:41.389Z,99.90
2017-09-12T02:44:10.370Z,99.90
2017-09-12T02:46:40.385Z,99.90
2017-09-12T02:49:08.417Z,99.90
2017-09-12T02:51:36.433Z,99.90
2017-09-12T02:54:05.441Z,99.90
2017-09-12T02:56:34.429Z,99.90
2017-09-12T02:59:03.452Z,99.90
2017-09-12T03:01:34.245Z,99.90
2017-09-12T03:04:03.301Z,99.90
2017-09-12T03:06:32.072Z,99.90
2017-09-12T03:09:01.012Z,99.90
2017-09-12T03:11:29.921Z,99.90
2017-09-12T03:13:58.888Z,99.90
2017-09-12T03:16:27.713Z,99.90
2017-09-12T03:18:55.705Z,99.90
2017-09-12T03:21:23.716Z,99.90
2017-09-12T03:23:52.661Z,99.90
2017-09-12T03:26:20.669Z,99.90
2017-09-12T03:28:48.705Z,99.90
2017-09-12T03:31:17.485Z,99.90
2017-09-12T03:33:46.269Z,99.90
2017-09-12T03:36:18.317Z,99.90
2017-09-12T03:38:46.332Z,99.90
2017-09-12T03:41:14.356Z,99.90
2017-09-12T03:43:47.328Z,99.90
2017-09-12T03:46:18.076Z,99.90
2017-09-12T03:48:47.912Z,99.90
2017-09-12T03:51:15.885Z,99.90
2017-09-12T03:53:43.908Z,99.90
2017-09-12T03:56:11.952Z,99.90
2017-09-12T03:58:39.964Z,99.90
2017-09-12T04:01:08.748Z,99.90
2017-09-12T04:03:36.764Z,99.90
2017-09-12T04:06:05.793Z,99.90
2017-09-12T04:08:34.808Z,99.90
2017-09-12T04:11:05.528Z,99.90
2017-09-12T04:13:34.440Z,99.90
2017-09-12T04:16:03.224Z,99.90
2017-09-12T04:18:32.040Z,99.90
2017-09-12T04:21:00.959Z,99.90
2017-09-12T04:23:28.980Z,99.90
2017-09-12T04:25:57.776Z,99.90
2017-09-12T04:28:25.792Z,99.90
2017-09-12T04:30:54.780Z,99.90
2017-09-12T04:33:22.807Z,99.90
2017-09-12T04:35:52.568Z,99.90
2017-09-12T04:38:20.584Z,99.90
2017-09-12T04:40:49.392Z,99.90
2017-09-12T04:43:18.436Z,99.90
2017-09-12T04:45:49.664Z,99.90
2017-09-12T04:48:17.707Z,99.90
2017-09-12T04:50:45.752Z,99.90
2017-09-12T04:53:14.543Z,99.90
2017-09-12T04:55:43.476Z,99.90
2017-09-12T04:58:11.492Z,99.90
2017-09-12T05:00:43.839Z,99.90
2017-09-12T05:03:12.813Z,99.90
2017-09-12T05:05:42.487Z,99.90
2017-09-12T05:08:10.512Z,99.90
2017-09-12T05:10:40.500Z,99.90
2017-09-12T05:13:12.460Z,99.90
2017-09-12T05:15:42.479Z,99.90
2017-09-12T05:18:11.525Z,99.90
2017-09-12T05:20:40.480Z,99.90
2017-09-12T05:23:08.495Z,99.90
2017-09-12T05:25:37.279Z,99.90
2017-09-12T05:28:06.232Z,99.90
2017-09-12T05:30:34.248Z,99.90
2017-09-12T05:33:02.267Z,99.90
2017-09-12T05:35:32.295Z,99.90
2017-09-12T05:38:01.255Z,99.90
2017-09-12T05:40:31.268Z,99.90
2017-09-12T05:43:00.188Z,99.90
2017-09-12T05:45:29.083Z,99.90
2017-09-12T05:47:59.835Z,99.90
2017-09-12T05:50:29.599Z,99.90
2017-09-12T05:53:03.210Z,99.90
2017-09-12T05:55:31.215Z,99.90
2017-09-12T05:57:59.250Z,99.90
2017-09-12T06:00:27.270Z,99.90
2017-09-12T06:02:55.286Z,99.90
2017-09-12T06:05:23.299Z,99.90
2017-09-12T06:07:51.335Z,99.90
2017-09-12T06:10:19.335Z,99.90
2017-09-12T06:12:47.386Z,99.90
2017-09-12T06:15:16.183Z,99.90
2017-09-12T06:17:44.966Z,99.90
2017-09-12T06:20:15.785Z,99.90
2017-09-12T06:22:48.343Z,99.90
2017-09-12T06:25:17.359Z,99.90
2017-09-12T06:27:46.163Z,99.90
2017-09-12T06:30:14.191Z,99.90
2017-09-12T06:32:48.003Z,99.90
2017-09-12T06:35:19.942Z,99.90
2017-09-12T06:37:47.970Z,99.90
2017-09-12T06:40:15.987Z,99.90
2017-09-12T06:42:44.895Z,99.90
2017-09-12T06:45:13.899Z,99.90
2017-09-12T06:47:42.867Z,99.90
2017-09-12T06:50:11.778Z,99.90
2017-09-12T06:52:39.811Z,99.90
2017-09-12T06:55:11.790Z,99.90
2017-09-12T06:57:39.818Z,99.90
2017-09-12T07:00:14.266Z,99.90
2017-09-12T07:02:42.310Z,99.90
2017-09-12T07:05:11.250Z,99.90
2017-09-12T07:07:39.271Z,99.90
2017-09-12T07:10:07.323Z,99.90
2017-09-12T07:12:35.346Z,99.90
2017-09-12T07:15:03.386Z,99.90
2017-09-12T07:17:31.426Z,99.90
2017-09-12T07:20:00.250Z,99.90
2017-09-12T07:22:28.275Z,99.90
2017-09-12T07:24:58.075Z,99.90
2017-09-12T07:27:27.118Z,99.90
2017-09-12T07:29:57.018Z,99.90
2017-09-12T07:32:25.042Z,99.90
2017-09-12T07:34:54.026Z,99.90
2017-09-12T07:37:22.050Z,99.90
2017-09-12T07:39:50.998Z,99.90
2017-09-12T07:42:19.977Z,99.90
2017-09-12T07:44:48.018Z,99.90
2017-09-12T07:47:16.043Z,99.90
2017-09-12T07:49:45.010Z,99.90
2017-09-12T07:52:13.026Z,99.90
2017-09-12T07:54:41.062Z,99.90
2017-09-12T07:57:12.922Z,99.90
2017-09-12T07:59:41.582Z,99.90
2017-09-12T08:02:10.594Z,99.90
2017-09-12T08:04:39.502Z,99.90
2017-09-12T08:07:07.526Z,99.90
2017-09-12T08:09:35.542Z,99.90
2017-09-12T08:12:04.510Z,99.90
2017-09-12T08:14:33.425Z,99.90
2017-09-12T08:17:01.442Z,99.90
2017-09-12T08:19:31.049Z,99.90
2017-09-12T08:22:00.074Z,99.90
2017-09-12T08:24:28.886Z,99.90
2017-09-12T08:27:02.589Z,99.90
2017-09-12T08:29:31.377Z,99.90
2017-09-12T08:32:01.161Z,99.90
2017-09-12T08:34:31.186Z,99.90
2017-09-12T08:37:02.938Z,99.90
2017-09-12T08:39:31.950Z,99.90
2017-09-12T08:42:02.665Z,99.90
2017-09-12T08:44:32.597Z,99.90
2017-09-12T08:47:02.310Z,99.90
2017-09-12T08:49:33.001Z,99.90
2017-09-12T08:52:01.017Z,99.90
2017-09-12T08:54:29.813Z,99.90
2017-09-12T08:56:59.833Z,99.90
2017-09-12T08:59:27.850Z,99.90
2017-09-12T09:01:57.009Z,99.90
2017-09-12T09:04:25.977Z,99.90
2017-09-12T09:06:54.778Z,99.90
2017-09-12T09:09:24.546Z,99.90
2017-09-12T09:12:02.326Z,99.90
2017-09-12T09:14:31.329Z,99.90
2017-09-12T09:16:59.356Z,99.90
2017-09-12T09:19:28.294Z,99.90
2017-09-12T09:22:03.726Z,99.90
2017-09-12T09:24:31.757Z,99.90
2017-09-12T09:27:00.681Z,99.90
2017-09-12T09:29:30.409Z,99.90
2017-09-12T09:31:58.505Z,99.90
2017-09-12T09:34:27.473Z,99.90
2017-09-12T09:36:56.613Z,99.90
2017-09-12T09:39:24.645Z,99.90
2017-09-12T09:41:54.749Z,99.90
2017-09-12T09:44:22.776Z,99.90
2017-09-12T09:46:55.949Z,99.90
2017-09-12T09:49:27.996Z,99.90
2017-09-12T09:52:00.269Z,99.90
2017-09-12T09:54:28.569Z,99.90
2017-09-12T09:56:57.361Z,99.90
2017-09-12T09:59:26.153Z,99.90
2017-09-12T10:01:54.181Z,99.90
2017-09-12T10:04:24.196Z,99.90
2017-09-12T10:06:53.192Z,99.90
2017-09-12T10:09:21.220Z,99.90
2017-09-12T10:11:49.248Z,99.90
2017-09-12T10:14:18.068Z,99.90
2017-09-12T10:16:46.099Z,99.90
2017-09-12T10:19:14.112Z,99.90
2017-09-12T10:21:46.620Z,99.90
2017-09-12T10:24:14.645Z,99.90
2017-09-12T10:26:46.384Z,99.90
2017-09-12T10:29:15.948Z,99.90
2017-09-12T10:31:44.005Z,99.90
2017-09-12T10:34:12.020Z,99.90
2017-09-12T10:36:41.716Z,99.90
2017-09-12T10:39:10.676Z,99.90
2017-09-12T10:41:38.676Z,99.90
2017-09-12T10:44:06.700Z,99.90
2017-09-12T10:46:40.285Z,99.90
2017-09-12T10:49:08.312Z,99.90
2017-09-12T10:51:37.300Z,99.90
2017-09-12T10:54:06.293Z,99.90
2017-09-12T10:56:36.304Z,99.90
2017-09-12T10:59:04.320Z,99.90
2017-09-12T11:01:32.377Z,99.90
2017-09-12T11:04:05.320Z,99.90
2017-09-12T11:06:33.360Z,99.90
2017-09-12T11:09:03.268Z,99.90
2017-09-12T11:11:32.060Z,99.90
2017-09-12T11:14:00.113Z,99.90
2017-09-12T11:16:28.932Z,99.90
2017-09-12T11:18:57.952Z,99.90
2017-09-12T11:21:25.996Z,99.90
2017-09-12T11:23:55.035Z,99.90
2017-09-12T11:26:23.948Z,99.90
2017-09-12T11:28:55.781Z,99.90
2017-09-12T11:31:23.795Z,99.90
2017-09-12T11:33:52.860Z,99.90
2017-09-12T11:36:21.664Z,99.90
2017-09-12T11:38:49.676Z,99.90
2017-09-12T11:41:17.692Z,99.90
2017-09-12T11:43:46.480Z,99.90
2017-09-12T11:46:15.260Z,99.90
2017-09-12T11:48:44.044Z,99.90
2017-09-12T11:51:12.844Z,99.90
2017-09-12T11:53:45.267Z,99.90
2017-09-12T11:56:13.804Z,99.90
2017-09-12T11:58:41.828Z,99.90
2017-09-12T12:01:09.852Z,99.90
2017-09-12T12:03:37.877Z,99.90
2017-09-12T12:06:05.899Z,99.90
2017-09-12T12:08:35.852Z,99.90
2017-09-12T12:11:03.884Z,99.90
2017-09-12T12:13:32.728Z,99.90
2017-09-12T12:16:01.696Z,99.10
2017-09-12T12:18:30.613Z,92.30
2017-09-12T12:20:59.580Z,91.60
2017-09-12T12:23:28.616Z,93.10
2017-09-12T12:25:57.420Z,89.80
2017-09-12T12:28:30.398Z,85.10
2017-09-12T12:30:59.359Z,84.90
2017-09-12T12:33:30.693Z,83.40
2017-09-12T12:35:58.724Z,85.50
2017-09-12T12:38:26.751Z,86.90
2017-09-12T12:40:55.715Z,89.00
2017-09-12T12:43:23.752Z,91.60
2017-09-12T12:45:52.532Z,95.10
2017-09-12T12:48:21.467Z,95.10
2017-09-12T12:50:49.484Z,96.80
2017-09-12T12:53:18.435Z,91.20
2017-09-12T12:55:46.459Z,81.00
2017-09-12T12:58:14.499Z,79.10
2017-09-12T13:00:43.288Z,82.00
2017-09-12T13:03:15.220Z,76.20
2017-09-12T13:05:43.239Z,76.20
2017-09-12T13:08:12.182Z,74.10
2017-09-12T13:10:42.200Z,70.70
2017-09-12T13:13:12.207Z,70.70
2017-09-12T13:15:42.251Z,74.80
2017-09-12T13:18:12.247Z,76.70
2017-09-12T13:20:41.165Z,75.80
2017-09-12T13:23:09.183Z,80.80
2017-09-12T13:25:38.099Z,81.80
2017-09-12T13:28:06.118Z,85.80
2017-09-12T13:30:37.611Z,91.20
2017-09-12T13:33:05.651Z,90.90
2017-09-12T13:35:34.659Z,92.20
2017-09-12T13:38:03.667Z,93.40
2017-09-12T13:40:31.694Z,95.10
2017-09-12T13:43:00.743Z,96.50
2017-09-12T13:45:28.859Z,96.90
2017-09-12T13:47:58.807Z,98.00
2017-09-12T13:50:26.845Z,96.40
2017-09-12T13:52:54.859Z,93.90
2017-09-12T13:55:22.895Z,92.00
2017-09-12T13:57:52.271Z,83.60
2017-09-12T14:00:21.215Z,79.30
2017-09-12T14:02:49.231Z,78.30
2017-09-12T14:05:19.176Z,64.10
2017-09-12T14:07:47.951Z,63.80
2017-09-12T14:10:17.694Z,63.80
2017-09-12T14:12:47.659Z,67.10
2017-09-12T14:15:16.455Z,70.90
2017-09-12T14:17:46.415Z,70.90
2017-09-12T14:20:14.434Z,70.80
2017-09-12T14:22:42.471Z,71.60
2017-09-12T14:25:10.499Z,68.30
2017-09-12T14:27:39.346Z,70.00
2017-09-12T14:30:08.146Z,66.20
2017-09-12T14:32:36.170Z,66.20
2017-09-12T14:35:04.187Z,67.00
2017-09-12T14:37:32.226Z,68.70
2017-09-12T14:40:01.198Z,68.80
2017-09-12T14:42:29.227Z,66.50
2017-09-12T14:44:57.255Z,65.70
2017-09-12T14:47:25.263Z,64.60
2017-09-12T14:49:54.191Z,59.60
2017-09-12T14:52:22.214Z,61.50
2017-09-12T14:54:50.239Z,61.90
2017-09-12T14:57:18.266Z,62.00
2017-09-12T14:59:46.294Z,61.60
2017-09-12T15:02:14.326Z,60.40
2017-09-12T15:04:42.350Z,60.00
2017-09-12T15:07:11.163Z,59.00
2017-09-12T15:09:39.167Z,58.90
2017-09-12T15:12:07.190Z,62.60
2017-09-12T15:14:36.978Z,64.20
2017-09-12T15:17:05.950Z,64.20
2017-09-12T15:19:35.986Z,64.80
2017-09-12T15:22:04.014Z,65.20
2017-09-12T15:24:32.019Z,65.10
2017-09-12T15:27:02.730Z,67.70
2017-09-12T15:29:31.498Z,67.70
2017-09-12T15:32:00.514Z,65.80
2017-09-12T15:34:29.442Z,64.50
2017-09-12T15:36:58.242Z,67.80
2017-09-12T15:39:26.258Z,67.80
2017-09-12T15:41:54.281Z,68.20
2017-09-12T15:44:24.070Z,67.80
2017-09-12T15:46:54.050Z,67.80
2017-09-12T15:49:23.050Z,69.40
2017-09-12T15:51:53.090Z,69.10
2017-09-12T15:54:21.141Z,69.00
2017-09-12T15:56:50.050Z,68.60
2017-09-12T15:59:18.094Z,68.10
2017-09-12T16:01:47.006Z,71.30
2017-09-12T16:04:15.021Z,71.90
2017-09-12T16:06:43.041Z,75.10
2017-09-12T16:09:12.022Z,74.90
2017-09-12T16:11:40.041Z,77.50
2017-09-12T16:14:09.253Z,80.60
2017-09-12T16:16:37.269Z,86.30
2017-09-12T16:19:05.325Z,91.10
2017-09-12T16:21:37.914Z,92.40
2017-09-12T16:24:06.926Z,94.10
2017-09-12T16:26:35.704Z,93.60
2017-09-12T16:29:03.726Z,93.50
2017-09-12T16:31:32.782Z,93.80
2017-09-12T16:34:03.617Z,97.10
2017-09-12T16:36:33.401Z,99.50
2017-09-12T16:39:01.409Z,99.50
2017-09-12T16:41:29.466Z,99.90
2017-09-12T16:43:57.457Z,99.90
2017-09-12T16:46:26.339Z,99.90
2017-09-12T16:48:55.129Z,99.90
2017-09-12T16:51:24.049Z,99.90
2017-09-12T16:53:53.065Z,99.90
2017-09-12T16:56:25.033Z,99.90
2017-09-12T16:58:59.834Z,99.90
2017-09-12T17:01:27.853Z,99.90
2017-09-12T17:03:58.553Z,99.90
2017-09-12T17:06:27.614Z,99.90
2017-09-12T17:08:57.381Z,99.90
2017-09-12T17:11:25.389Z,99.90
2017-09-12T17:13:54.428Z,99.90
2017-09-12T17:16:23.357Z,99.90
2017-09-12T17:18:51.401Z,99.90
2017-09-12T17:21:20.321Z,99.90
2017-09-12T17:23:50.316Z,99.90
2017-09-12T17:26:19.104Z,99.90
2017-09-12T17:28:49.816Z,99.90
2017-09-12T17:31:17.833Z,99.90
2017-09-12T17:33:48.837Z,99.90
2017-09-12T17:36:16.868Z,99.90
2017-09-12T17:38:45.908Z,99.90
2017-09-12T17:41:18.289Z,99.90
2017-09-12T17:43:49.104Z,99.90
2017-09-12T17:46:18.129Z,99.90
2017-09-12T17:48:47.064Z,99.90
2017-09-12T17:51:15.088Z,99.90
2017-09-12T17:53:43.249Z,99.90
2017-09-12T17:56:12.040Z,99.90
2017-09-12T17:58:40.861Z,99.90
2017-09-12T18:01:08.864Z,99.90
2017-09-12T18:03:36.888Z,99.90
2017-09-12T18:06:04.908Z,99.90
2017-09-12T18:08:32.945Z,99.90
2017-09-12T18:11:00.980Z,99.90
2017-09-12T18:13:30.744Z,99.90
2017-09-12T18:15:58.890Z,99.90
2017-09-12T18:18:26.912Z,99.90
2017-09-12T18:20:55.876Z,99.90
2017-09-12T18:23:24.644Z,99.90
2017-09-12T18:25:52.668Z,99.90
2017-09-12T18:28:25.432Z,99.90
2017-09-12T18:30:55.454Z,99.90
2017-09-12T18:33:23.489Z,99.90
2017-09-12T18:35:51.513Z,99.90
2017-09-12T18:38:21.281Z,99.90
2017-09-12T18:40:50.277Z,99.90
2017-09-12T18:43:19.412Z,99.90
2017-09-12T18:45:48.193Z,99.90
2017-09-12T18:48:16.996Z,99.90
2017-09-12T18:50:45.148Z,99.90
2017-09-12T18:53:13.948Z,99.90
2017-09-12T18:55:43.729Z,99.90
2017-09-12T18:58:11.768Z,99.90
2017-09-12T19:00:40.833Z,99.90
2017-09-12T19:03:08.853Z,99.90
2017-09-12T19:05:37.009Z,99.90
2017-09-12T19:08:05.068Z,99.90
2017-09-12T19:10:33.080Z,99.90
2017-09-12T19:13:01.136Z,99.90
2017-09-12T19:15:29.212Z,99.90
2017-09-12T19:17:58.140Z,99.90
2017-09-12T19:20:26.184Z,99.90
2017-09-12T19:22:56.744Z,99.90
2017-09-12T19:25:26.832Z,99.90
2017-09-12T19:27:55.625Z,99.90
2017-09-12T19:30:25.413Z,99.90
2017-09-12T19:32:53.464Z,99.90
2017-09-12T19:35:21.495Z,99.90
2017-09-12T19:37:50.275Z,99.90
2017-09-12T19:40:20.060Z,99.90
2017-09-12T19:42:51.640Z,99.90
2017-09-12T19:45:21.360Z,99.90
2017-09-12T19:47:49.412Z,99.90
2017-09-12T19:50:18.200Z,99.90
2017-09-12T19:52:47.012Z,99.90
2017-09-12T19:55:15.044Z,99.90
2017-09-12T19:57:43.064Z,99.90
2017-09-12T20:00:11.120Z,99.90
2017-09-12T20:02:39.151Z,99.90
2017-09-12T20:05:07.176Z,99.90
2017-09-12T20:07:35.255Z,99.90
2017-09-12T20:10:04.180Z,99.90
2017-09-12T20:12:32.199Z,99.90
2017-09-12T20:15:01.027Z,99.90
2017-09-12T20:17:29.136Z,99.90
2017-09-12T20:19:58.808Z,99.90
2017-09-12T20:22:27.003Z,99.90
2017-09-12T20:24:55.787Z,99.90
2017-09-12T20:27:25.583Z,99.90
2017-09-12T20:29:53.631Z,99.90
2017-09-12T20:32:21.671Z,99.90
2017-09-12T20:34:49.683Z,99.90
2017-09-12T20:37:17.755Z,99.90
2017-09-12T20:39:45.773Z,99.90
2017-09-12T20:42:13.811Z,99.90
2017-09-12T20:44:42.035Z,99.90
2017-09-12T20:47:10.055Z,99.90
2017-09-12T20:49:39.103Z,99.90
2017-09-12T20:52:07.115Z,99.90
2017-09-12T20:54:36.083Z,99.90
2017-09-12T20:57:04.110Z,99.90
2017-09-12T20:59:32.159Z,99.90
2017-09-12T21:02:00.956Z,99.90
2017-09-12T21:04:30.735Z,99.90
2017-09-12T21:06:58.762Z,99.90
2017-09-12T21:09:27.743Z,99.90
2017-09-12T21:11:55.767Z,99.90
2017-09-12T21:14:23.815Z,99.90
2017-09-12T21:16:53.542Z,99.90
2017-09-12T21:19:21.566Z,99.90
2017-09-12T21:21:49.599Z,99.90
2017-09-12T21:24:17.619Z,99.90
2017-09-12T21:26:45.643Z,99.90
2017-09-12T21:29:18.943Z,99.90
2017-09-12T21:31:48.674Z,99.90
2017-09-12T21:34:16.711Z,99.90
2017-09-12T21:36:45.507Z,99.90
2017-09-12T21:39:14.451Z,99.90
2017-09-12T21:41:42.438Z,99.90
2017-09-12T21:44:10.475Z,99.90
2017-09-12T21:46:40.427Z,99.90
2017-09-12T21:49:08.459Z,99.90
2017-09-12T21:51:36.507Z,99.90
2017-09-12T21:54:04.538Z,99.90
2017-09-12T21:56:33.522Z,99.90
2017-09-12T21:59:01.554Z,99.90
2017-09-12T22:01:30.599Z,99.90
2017-09-12T22:03:59.591Z,99.90
2017-09-12T22:06:27.630Z,99.90
2017-09-12T22:08:56.646Z,99.90
2017-09-12T22:11:25.630Z,99.90
2017-09-12T22:13:53.690Z,99.90
2017-09-12T22:16:22.702Z,99.90
2017-09-12T22:18:50.755Z,99.90
2017-09-12T22:21:18.758Z,99.90
2017-09-12T22:23:48.766Z,99.90
2017-09-12T22:26:16.790Z,99.90
2017-09-12T22:28:44.830Z,99.90
2017-09-12T22:31:14.618Z,99.90
2017-09-12T22:33:42.646Z,99.90
2017-09-12T22:36:10.730Z,99.90
2017-09-12T22:38:38.774Z,99.90
2017-09-12T22:41:07.538Z,99.90
2017-09-12T22:43:37.347Z,99.90
2017-09-12T22:46:06.134Z,99.90
2017-09-12T22:48:34.938Z,99.90
2017-09-12T22:51:04.863Z,99.90
2017-09-12T22:53:32.874Z,99.90
2017-09-12T22:56:01.866Z,99.90
2017-09-12T22:58:29.947Z,99.90
2017-09-12T23:00:57.970Z,99.90
2017-09-12T23:03:25.997Z,99.90
2017-09-12T23:05:54.018Z,99.90
2017-09-12T23:08:23.039Z,99.90
2017-09-12T23:10:51.054Z,99.90
2017-09-12T23:13:19.095Z,99.90
2017-09-12T23:15:47.114Z,99.90
2017-09-12T23:18:16.150Z,99.90
2017-09-12T23:20:45.166Z,99.90
2017-09-12T23:23:13.246Z,99.90
2017-09-12T23:25:42.034Z,99.90
2017-09-12T23:28:11.814Z,99.90
2017-09-12T23:30:39.877Z,99.90
2017-09-12T23:33:08.862Z,99.90
2017-09-12T23:35:36.937Z,99.90
2017-09-12T23:38:05.726Z,99.90
2017-09-12T23:40:33.753Z,99.90
2017-09-12T23:43:01.791Z,99.90
2017-09-12T23:45:29.793Z,99.90
2017-09-12T23:47:57.817Z,99.90
2017-09-12T23:50:25.857Z,99.90
2017-09-12T23:52:53.885Z,99.90
2017-09-12T23:55:22.666Z,99.90
2017-09-12T23:57:53.489Z,99.90
